createdAt,value
2022-12-27T00:01:14.094Z,2.15
2022-12-27T00:06:17.029Z,3.33
2022-12-27T00:11:18.596Z,2.67
2022-12-27T00:16:17.529Z,2.38
2022-12-27T00:26:22.712Z,2.58
2022-12-27T00:31:21.305Z,1.88
2022-12-27T00:36:20.294Z,1.83
2022-12-27T00:41:17.369Z,2.45
2022-12-27T00:46:14.203Z,1.70
2022-12-27T00:51:10.552Z,1.50
2022-12-27T00:56:13.836Z,1.45
2022-12-27T01:01:18.114Z,1.33
2022-12-27T01:06:20.187Z,1.55
2022-12-27T01:11:18.461Z,1.65
2022-12-27T01:16:18.177Z,2.20
2022-12-27T01:21:16.976Z,2.15
2022-12-27T01:26:16.371Z,1.60
2022-12-27T01:31:16.271Z,1.42
2022-12-27T01:36:16.532Z,1.67
2022-12-27T01:41:39.207Z,1.95
2022-12-27T01:46:36.982Z,1.60
2022-12-27T01:51:33.396Z,1.63
2022-12-27T01:56:31.303Z,1.42
2022-12-27T02:01:39.764Z,2.05
2022-12-27T02:06:38.097Z,1.67
2022-12-27T02:11:51.128Z,1.50
2022-12-27T02:16:49.010Z,1.80
2022-12-27T02:22:08.169Z,1.90
2022-12-27T02:27:25.829Z,1.90
2022-12-27T02:32:35.150Z,1.77
2022-12-27T02:37:34.035Z,1.80
2022-12-27T02:48:06.373Z,2.78
2022-12-27T02:53:13.547Z,2.40
2022-12-27T02:58:44.826Z,2.47
2022-12-27T03:03:54.705Z,2.67
2022-12-27T03:09:45.360Z,2.10
2022-12-27T03:15:06.422Z,2.45
2022-12-27T03:20:34.506Z,2.50
2022-12-27T03:25:34.735Z,1.80
2022-12-27T03:30:49.866Z,2.90
2022-12-27T03:36:17.810Z,2.22
2022-12-27T03:41:35.981Z,2.90
2022-12-27T03:46:34.797Z,2.45
2022-12-27T03:56:31.563Z,2.33
2022-12-27T04:01:28.119Z,3.05
2022-12-27T04:06:24.514Z,3.70
2022-12-27T04:11:39.385Z,2.55
2022-12-27T04:16:54.300Z,3.08
2022-12-27T04:22:09.405Z,4.15
2022-12-27T04:27:24.390Z,2.53
2022-12-27T04:32:39.321Z,2.80
2022-12-27T04:37:35.715Z,3.80
2022-12-27T04:42:50.709Z,3.47
2022-12-27T04:48:05.793Z,4.20
2022-12-27T04:53:20.594Z,4.45
2022-12-27T04:58:17.163Z,5.47
2022-12-27T05:03:16.947Z,4.85
2022-12-27T05:08:33.366Z,4.88
2022-12-27T05:13:48.512Z,4.60
2022-12-27T05:18:44.986Z,5.85
2022-12-27T05:24:05.149Z,5.78
2022-12-27T05:29:02.991Z,5.45
2022-12-27T05:33:59.939Z,5.90
2022-12-27T05:38:57.465Z,6.32
2022-12-27T05:43:53.917Z,5.68
2022-12-27T05:48:50.276Z,5.25
2022-12-27T05:53:47.614Z,5.90
2022-12-27T05:58:44.848Z,6.35
2022-12-27T06:03:41.878Z,6.47
2022-12-27T06:08:38.966Z,6.97
2022-12-27T06:13:36.806Z,6.30
2022-12-27T06:18:35.728Z,7.43
2022-12-27T06:28:32.674Z,7.65
2022-12-27T06:33:29.415Z,8.52
2022-12-27T06:38:25.861Z,8.25
2022-12-27T06:43:22.191Z,7.10
2022-12-27T06:48:18.615Z,7.32
2022-12-27T06:53:15.006Z,7.05
2022-12-27T06:58:12.841Z,7.53
2022-12-27T07:03:09.279Z,7.28
2022-12-27T07:08:06.283Z,7.20
2022-12-27T07:13:02.695Z,7.45
2022-12-27T07:17:59.735Z,6.72
2022-12-27T07:22:58.814Z,7.20
2022-12-27T07:27:55.253Z,6.78
2022-12-27T07:32:51.643Z,6.82
2022-12-27T07:37:48.069Z,8.45
2022-12-27T07:42:44.431Z,9.13
2022-12-27T07:47:40.912Z,8.13
2022-12-27T07:52:37.301Z,7.25
2022-12-27T07:57:33.767Z,7.20
2022-12-27T08:02:30.153Z,6.95
2022-12-27T08:07:26.687Z,5.97
2022-12-27T08:12:23.141Z,7.38
2022-12-27T08:17:27.349Z,6.90
2022-12-27T08:22:24.602Z,6.20
2022-12-27T08:27:23.167Z,7.85
2022-12-27T08:32:19.519Z,9.32
2022-12-27T08:37:15.979Z,7.93
2022-12-27T08:42:13.432Z,8.32
2022-12-27T08:47:09.873Z,8.13
2022-12-27T08:52:06.717Z,8.27
2022-12-27T08:57:03.073Z,7.80
2022-12-27T09:01:59.455Z,8.88
2022-12-27T09:06:55.798Z,8.63
2022-12-27T09:11:52.226Z,10.13
2022-12-27T09:16:48.521Z,8.85
2022-12-27T09:21:44.820Z,9.98
2022-12-27T09:26:41.768Z,9.25
2022-12-27T09:31:38.158Z,9.43
2022-12-27T09:36:37.606Z,8.10
2022-12-27T09:47:23.129Z,5.97
2022-12-27T09:52:41.295Z,7.15
2022-12-27T09:57:40.955Z,7.00
2022-12-27T10:02:37.462Z,6.90
2022-12-27T10:07:48.825Z,6.80
2022-12-27T10:13:14.425Z,5.18
2022-12-27T10:18:41.287Z,7.05
2022-12-27T10:23:42.219Z,6.68
2022-12-27T10:28:41.397Z,7.68
2022-12-27T10:33:37.993Z,7.18
2022-12-27T10:38:35.854Z,8.10
2022-12-27T10:43:38.538Z,6.95
2022-12-27T10:49:02.659Z,9.55
2022-12-27T10:53:51.491Z,9.48
2022-12-27T10:58:58.197Z,12.63
2022-12-27T11:04:20.148Z,11.23
2022-12-27T11:09:32.806Z,12.10
2022-12-27T11:14:29.276Z,11.02
2022-12-27T11:19:27.405Z,11.00
2022-12-27T11:24:23.881Z,9.00
2022-12-27T11:29:22.875Z,11.45
2022-12-27T11:34:38.035Z,10.68
2022-12-27T11:39:37.147Z,10.73
2022-12-27T11:44:38.615Z,10.32
2022-12-27T11:50:02.740Z,10.27
2022-12-27T11:55:11.319Z,9.80
2022-12-27T12:00:24.613Z,10.38
2022-12-27T12:05:44.864Z,9.43
2022-12-27T12:10:53.562Z,8.93
2022-12-27T12:16:18.042Z,7.95
2022-12-27T12:21:33.401Z,7.60
2022-12-27T12:26:54.177Z,7.88
2022-12-27T12:31:58.295Z,8.80
2022-12-27T12:37:17.757Z,6.95
2022-12-27T12:42:49.927Z,8.02
2022-12-27T12:48:04.701Z,7.22
2022-12-27T12:53:22.383Z,6.13
2022-12-27T12:58:38.666Z,6.18
2022-12-27T13:03:52.990Z,5.60
2022-12-27T13:09:16.819Z,6.47
2022-12-27T13:14:41.286Z,6.05
2022-12-27T13:20:15.004Z,5.72
2022-12-27T13:25:14.169Z,4.90
2022-12-27T13:30:22.314Z,6.05
2022-12-27T13:35:30.541Z,4.25
2022-12-27T13:40:46.148Z,2.90
2022-12-27T13:46:08.679Z,4.00
2022-12-27T13:51:27.853Z,3.92
2022-12-27T13:57:01.130Z,3.90
2022-12-27T14:02:32.201Z,3.97
2022-12-27T14:07:42.206Z,4.05
2022-12-27T14:12:47.574Z,3.92
2022-12-27T14:17:57.953Z,4.45
2022-12-27T14:23:16.915Z,3.70
2022-12-27T14:28:49.032Z,3.47
2022-12-27T14:34:23.084Z,4.03
2022-12-27T14:39:59.410Z,4.63
2022-12-27T14:45:14.571Z,3.88
2022-12-27T14:50:30.833Z,3.75
2022-12-27T14:55:39.948Z,4.25
2022-12-27T15:01:02.905Z,3.42
2022-12-27T15:06:29.391Z,2.92
2022-12-27T15:11:55.397Z,2.15
2022-12-27T15:17:12.568Z,2.67
2022-12-27T15:22:18.119Z,3.25
2022-12-27T15:27:53.961Z,3.13
2022-12-27T15:33:16.591Z,2.50
2022-12-27T15:38:41.138Z,2.70
2022-12-27T15:43:56.233Z,3.15
2022-12-27T15:49:30.237Z,2.30
2022-12-27T15:54:47.602Z,2.20
2022-12-27T16:00:06.462Z,2.53
2022-12-27T16:05:22.728Z,2.90
2022-12-27T16:10:35.384Z,3.78
2022-12-27T16:15:53.244Z,2.70
2022-12-27T16:20:58.251Z,3.67
2022-12-27T16:26:10.381Z,3.92
2022-12-27T16:31:11.703Z,4.10
2022-12-27T16:36:20.446Z,3.97
2022-12-27T16:47:00.494Z,4.60
2022-12-27T16:52:18.397Z,3.95
2022-12-27T16:57:39.558Z,4.13
2022-12-27T17:02:44.487Z,3.83
2022-12-27T17:07:53.770Z,4.30
2022-12-27T17:12:53.761Z,4.22
2022-12-27T17:17:56.595Z,3.67
2022-12-27T17:22:57.500Z,4.00
2022-12-27T17:28:08.591Z,4.38
2022-12-27T17:33:17.894Z,3.95
2022-12-27T17:38:44.011Z,3.75
2022-12-27T17:44:05.099Z,2.67
2022-12-27T17:49:01.598Z,3.13
2022-12-27T17:54:16.275Z,3.13
2022-12-27T17:59:22.914Z,2.67
2022-12-27T18:04:35.959Z,2.75
2022-12-27T18:09:48.102Z,2.60
2022-12-27T18:14:51.277Z,2.35
2022-12-27T18:19:47.587Z,2.70
2022-12-27T18:24:43.900Z,2.67
2022-12-27T18:29:46.357Z,2.35
2022-12-27T18:34:48.862Z,1.77
2022-12-27T18:39:54.777Z,2.00
2022-12-27T18:44:56.926Z,2.15
2022-12-27T18:49:56.957Z,1.63
2022-12-27T18:54:53.683Z,2.00
2022-12-27T19:00:21.567Z,1.85
2022-12-27T19:05:20.903Z,1.73
2022-12-27T19:10:20.425Z,2.20
2022-12-27T19:15:21.966Z,1.60
2022-12-27T19:20:24.878Z,2.00
2022-12-27T19:25:30.266Z,1.83
2022-12-27T19:30:31.862Z,1.70
2022-12-27T19:35:28.766Z,1.75
2022-12-27T19:40:25.156Z,1.85
2022-12-27T19:45:21.619Z,1.13
2022-12-27T19:50:18.001Z,1.33
2022-12-27T19:55:24.345Z,1.75
2022-12-27T20:00:23.326Z,1.65
2022-12-27T20:06:13.622Z,1.73
2022-12-27T20:10:36.019Z,1.35
2022-12-27T20:15:32.662Z,1.60
2022-12-27T20:20:28.953Z,1.73
2022-12-27T20:25:25.659Z,2.33
2022-12-27T20:30:22.015Z,2.63
2022-12-27T20:35:18.422Z,1.58
2022-12-27T20:40:14.812Z,1.40
2022-12-27T20:45:11.786Z,1.50
2022-12-27T20:50:08.803Z,1.58
2022-12-27T20:55:10.333Z,1.30
2022-12-27T21:00:08.298Z,1.60
2022-12-27T21:05:05.227Z,1.53
2022-12-27T21:10:01.846Z,1.27
2022-12-27T21:14:59.017Z,1.15
2022-12-27T21:19:55.512Z,1.77
2022-12-27T21:24:51.931Z,1.50
2022-12-27T21:29:48.288Z,1.65
2022-12-27T21:34:44.773Z,1.88
2022-12-27T21:39:41.140Z,2.20
2022-12-27T21:44:38.882Z,2.47
2022-12-27T21:49:35.431Z,1.27
2022-12-27T21:54:31.726Z,1.60
2022-12-27T21:59:28.039Z,1.42
2022-12-27T22:04:24.336Z,1.45
2022-12-27T22:09:20.710Z,1.60
2022-12-27T22:14:20.595Z,2.17
2022-12-27T22:19:19.872Z,2.15
2022-12-27T22:24:19.384Z,1.75
2022-12-27T22:29:16.024Z,1.83
2022-12-27T22:34:12.398Z,2.05
2022-12-27T22:39:08.795Z,1.50
2022-12-27T22:44:08.705Z,1.58
2022-12-27T22:49:05.531Z,1.88
2022-12-27T22:54:03.043Z,1.85
2022-12-27T22:59:00.022Z,1.60
2022-12-27T23:03:57.470Z,1.73
2022-12-27T23:08:54.473Z,1.80
2022-12-27T23:13:56.743Z,1.55
2022-12-27T23:18:53.705Z,1.23
2022-12-27T23:23:50.110Z,1.67
2022-12-27T23:28:48.703Z,1.30
2022-12-27T23:33:45.183Z,1.52
2022-12-27T23:38:42.955Z,1.83
2022-12-27T23:43:56.190Z,2.33
2022-12-27T23:48:53.570Z,2.03
2022-12-27T23:53:50.609Z,1.27
2022-12-27T23:58:48.820Z,1.45
